createdAt,value
2022-10-11T00:01:53.647Z,2.75
2022-10-11T00:04:20.450Z,2.20
2022-10-11T00:06:47.626Z,2.03
2022-10-11T00:09:16.226Z,2.08
2022-10-11T00:11:43.479Z,4.80
2022-10-11T00:14:10.725Z,1.95
2022-10-11T00:16:41.056Z,2.07
2022-10-11T00:19:07.938Z,3.15
2022-10-11T00:21:34.837Z,3.00
2022-10-11T00:24:01.628Z,1.85
2022-10-11T00:26:28.774Z,2.10
2022-10-11T00:28:55.924Z,2.17
2022-10-11T00:31:23.099Z,2.05
2022-10-11T00:33:49.910Z,2.58
2022-10-11T00:36:17.687Z,1.45
2022-10-11T00:38:45.583Z,2.00
2022-10-11T00:41:13.692Z,6.33
2022-10-11T00:43:41.398Z,4.43
2022-10-11T00:46:14.276Z,2.47
2022-10-11T00:48:55.520Z,4.05
2022-10-11T00:51:35.483Z,2.03
2022-10-11T00:54:02.929Z,2.23
2022-10-11T00:56:39.290Z,2.85
2022-10-11T00:59:12.116Z,2.97
2022-10-11T01:01:39.299Z,2.50
2022-10-11T01:04:06.176Z,3.45
2022-10-11T01:06:33.918Z,2.20
2022-10-11T01:09:00.767Z,2.55
2022-10-11T01:11:29.956Z,0.93
2022-10-11T01:14:13.940Z,2.85
2022-10-11T01:16:47.127Z,1.88
2022-10-11T01:19:32.189Z,2.23
2022-10-11T01:22:01.743Z,3.15
2022-10-11T01:24:46.926Z,2.00
2022-10-11T01:27:44.526Z,1.10
2022-10-11T01:30:19.320Z,2.75
2022-10-11T01:33:04.696Z,2.07
2022-10-11T01:35:49.298Z,3.45
2022-10-11T01:38:34.516Z,1.88
2022-10-11T01:41:13.997Z,2.15
2022-10-11T01:43:42.250Z,2.42
2022-10-11T01:46:10.417Z,1.10
2022-10-11T01:48:51.065Z,1.80
2022-10-11T01:51:22.340Z,0.85
2022-10-11T01:54:04.082Z,0.80
2022-10-11T01:56:56.215Z,1.00
2022-10-11T01:59:39.763Z,1.50
2022-10-11T02:02:18.427Z,1.35
2022-10-11T02:04:53.560Z,1.02
2022-10-11T02:07:31.514Z,2.70
2022-10-11T02:10:33.081Z,1.77
2022-10-11T02:13:09.534Z,1.10
2022-10-11T02:15:39.610Z,1.15
2022-10-11T02:18:12.760Z,2.20
2022-10-11T02:20:41.421Z,3.20
2022-10-11T02:23:30.654Z,2.05
2022-10-11T02:25:58.015Z,1.60
2022-10-11T02:28:29.849Z,2.28
2022-10-11T02:31:00.689Z,1.30
2022-10-11T02:33:33.986Z,1.52
2022-10-11T02:36:10.326Z,3.28
2022-10-11T02:38:48.532Z,2.33
2022-10-11T02:41:36.212Z,2.42
2022-10-11T02:44:33.228Z,2.30
2022-10-11T02:47:01.707Z,1.50
2022-10-11T02:49:30.181Z,2.47
2022-10-11T02:51:58.097Z,1.60
2022-10-11T02:54:27.744Z,1.73
2022-10-11T02:56:54.562Z,2.03
2022-10-11T02:59:21.427Z,2.10
2022-10-11T03:01:48.491Z,2.17
2022-10-11T03:04:15.349Z,2.03
2022-10-11T03:06:42.165Z,3.13
2022-10-11T03:09:08.994Z,1.35
2022-10-11T03:11:35.821Z,0.80
2022-10-11T03:14:02.607Z,1.60
2022-10-11T03:16:29.445Z,0.80
2022-10-11T03:18:56.250Z,2.13
2022-10-11T03:21:25.237Z,1.67
2022-10-11T03:23:52.465Z,0.88
2022-10-11T03:26:19.433Z,3.58
2022-10-11T03:28:46.312Z,1.67
2022-10-11T03:31:13.295Z,0.95
2022-10-11T03:33:40.066Z,1.95
2022-10-11T03:36:07.634Z,1.80
2022-10-11T03:38:34.700Z,1.30
2022-10-11T03:41:01.511Z,1.97
2022-10-11T03:43:28.301Z,3.90
2022-10-11T03:45:55.028Z,2.30
2022-10-11T03:48:22.222Z,1.65
2022-10-11T03:50:49.317Z,6.05
2022-10-11T03:53:16.109Z,2.40
2022-10-11T03:55:42.970Z,2.30
2022-10-11T03:58:09.763Z,2.00
2022-10-11T04:00:37.512Z,1.60
2022-10-11T04:03:04.272Z,1.20
2022-10-11T04:05:31.192Z,1.50
2022-10-11T04:07:57.990Z,4.65
2022-10-11T04:10:24.836Z,2.97
2022-10-11T04:12:51.613Z,5.43
2022-10-11T04:15:18.531Z,1.27
2022-10-11T04:17:45.364Z,2.87
2022-10-11T04:20:12.248Z,1.30
2022-10-11T04:22:39.087Z,1.75
2022-10-11T04:25:07.056Z,2.20
2022-10-11T04:27:34.065Z,1.98
2022-10-11T04:30:01.008Z,1.50
2022-10-11T04:32:28.053Z,5.03
2022-10-11T04:34:54.851Z,2.50
2022-10-11T04:37:21.745Z,2.40
2022-10-11T04:39:48.678Z,1.45
2022-10-11T04:42:16.509Z,3.23
2022-10-11T04:44:43.219Z,6.88
2022-10-11T04:47:10.012Z,3.20
2022-10-11T04:49:36.729Z,1.80
2022-10-11T04:52:03.780Z,4.30
2022-10-11T04:54:30.574Z,3.00
2022-10-11T04:56:57.407Z,2.35
2022-10-11T04:59:24.155Z,2.75
2022-10-11T05:01:51.064Z,2.83
2022-10-11T05:04:17.981Z,0.93
2022-10-11T05:06:44.738Z,1.20
2022-10-11T05:09:11.713Z,1.90
2022-10-11T05:11:38.423Z,2.50
2022-10-11T05:14:05.368Z,1.30
2022-10-11T05:16:32.170Z,0.77
2022-10-11T05:18:58.932Z,1.30
2022-10-11T05:21:28.140Z,1.38
2022-10-11T05:23:56.476Z,2.05
2022-10-11T05:26:25.651Z,2.08
2022-10-11T05:28:53.040Z,1.20
2022-10-11T05:31:20.489Z,2.13
2022-10-11T05:33:47.403Z,1.02
2022-10-11T05:36:14.359Z,1.67
2022-10-11T05:38:41.580Z,1.17
2022-10-11T05:41:11.865Z,2.10
2022-10-11T05:43:38.699Z,2.83
2022-10-11T05:46:06.121Z,1.55
2022-10-11T05:48:33.803Z,2.08
2022-10-11T05:51:03.327Z,2.30
2022-10-11T05:53:30.743Z,1.65
2022-10-11T05:55:57.719Z,0.93
2022-10-11T05:58:25.061Z,1.15
2022-10-11T06:00:52.216Z,1.48
2022-10-11T06:03:21.193Z,1.65
2022-10-11T06:05:48.104Z,1.13
2022-10-11T06:08:15.981Z,1.90
2022-10-11T06:10:42.822Z,1.45
2022-10-11T06:13:09.897Z,4.60
2022-10-11T06:15:39.781Z,1.83
2022-10-11T06:18:06.891Z,2.17
2022-10-11T06:20:33.725Z,3.13
2022-10-11T06:23:00.678Z,2.70
2022-10-11T06:25:27.616Z,2.35
2022-10-11T06:27:54.540Z,2.35
2022-10-11T06:30:21.556Z,2.80
2022-10-11T06:32:48.457Z,2.73
2022-10-11T06:35:15.385Z,1.08
2022-10-11T06:37:42.253Z,0.90
2022-10-11T06:40:09.537Z,2.88
2022-10-11T06:42:36.316Z,2.95
2022-10-11T06:45:03.373Z,2.87
2022-10-11T06:47:30.168Z,3.03
2022-10-11T06:49:57.016Z,3.35
2022-10-11T06:52:23.805Z,2.25
2022-10-11T06:54:50.679Z,5.90
2022-10-11T06:57:17.521Z,2.83
2022-10-11T06:59:44.498Z,1.42
2022-10-11T07:02:11.362Z,3.67
2022-10-11T07:04:38.121Z,2.15
2022-10-11T07:07:04.963Z,3.95
2022-10-11T07:09:32.312Z,3.17
2022-10-11T07:11:59.110Z,2.15
2022-10-11T07:14:25.982Z,4.53
2022-10-11T07:16:52.749Z,2.17
2022-10-11T07:19:19.653Z,4.07
2022-10-11T07:21:46.483Z,1.53
2022-10-11T07:24:13.375Z,5.95
2022-10-11T07:26:40.961Z,5.45
2022-10-11T07:29:09.711Z,4.95
2022-10-11T07:31:38.936Z,9.15
2022-10-11T07:34:05.713Z,4.93
2022-10-11T07:36:32.601Z,3.72
2022-10-11T07:38:59.428Z,4.78
2022-10-11T07:41:26.221Z,3.58
2022-10-11T07:43:54.675Z,6.95
2022-10-11T07:46:21.466Z,4.80
2022-10-11T07:48:50.360Z,6.78
2022-10-11T07:51:22.502Z,3.70
2022-10-11T07:53:51.549Z,6.30
2022-10-11T07:56:24.116Z,4.75
2022-10-11T07:58:53.336Z,4.00
2022-10-11T08:01:21.025Z,6.30
2022-10-11T08:03:48.673Z,4.38
2022-10-11T08:06:18.590Z,5.05
2022-10-11T08:08:45.475Z,4.28
2022-10-11T08:11:24.216Z,7.63
2022-10-11T08:13:51.453Z,5.85
2022-10-11T08:16:18.600Z,5.57
2022-10-11T08:18:45.756Z,7.65
2022-10-11T08:21:15.533Z,4.85
2022-10-11T08:23:42.324Z,6.07
2022-10-11T08:26:09.756Z,5.60
2022-10-11T08:28:37.017Z,5.05
2022-10-11T08:31:04.536Z,8.27
2022-10-11T08:33:31.738Z,6.05
2022-10-11T08:35:59.030Z,6.97
2022-10-11T08:38:25.905Z,6.63
2022-10-11T08:40:59.570Z,9.07
2022-10-11T08:43:38.359Z,6.50
2022-10-11T08:46:08.592Z,11.10
2022-10-11T08:48:43.938Z,5.87
2022-10-11T08:51:23.452Z,6.70
2022-10-11T08:54:02.332Z,9.10
2022-10-11T08:56:35.552Z,3.95
2022-10-11T08:59:13.605Z,8.25
2022-10-11T09:02:12.607Z,5.00
2022-10-11T09:04:39.564Z,7.05
2022-10-11T09:07:28.680Z,6.60
2022-10-11T09:10:24.312Z,5.50
2022-10-11T09:13:09.292Z,4.55
2022-10-11T09:16:24.152Z,8.40
2022-10-11T09:19:17.318Z,10.05
2022-10-11T09:22:30.202Z,7.70
2022-10-11T09:25:12.064Z,8.38
2022-10-11T09:28:04.194Z,7.30
2022-10-11T09:30:32.793Z,6.93
2022-10-11T09:33:08.801Z,5.97
2022-10-11T09:35:46.686Z,7.05
2022-10-11T09:38:19.616Z,6.55
2022-10-11T09:41:12.234Z,4.78
2022-10-11T09:43:39.646Z,8.73
2022-10-11T09:46:37.038Z,6.75
2022-10-11T09:49:10.243Z,7.15
2022-10-11T09:51:37.846Z,9.70
2022-10-11T09:54:06.656Z,8.00
2022-10-11T09:56:40.399Z,4.77
2022-10-11T09:59:08.656Z,8.35
2022-10-11T10:01:36.089Z,6.07
2022-10-11T10:04:14.535Z,4.53
2022-10-11T10:06:41.393Z,8.57
2022-10-11T10:09:30.594Z,8.87
2022-10-11T10:11:58.221Z,5.47
2022-10-11T10:14:30.288Z,5.55
2022-10-11T10:17:07.121Z,5.82
2022-10-11T10:19:51.997Z,6.18
2022-10-11T10:22:31.402Z,6.43
2022-10-11T10:25:02.320Z,5.57
2022-10-11T10:27:30.693Z,6.95
2022-10-11T10:30:03.579Z,5.25
2022-10-11T10:32:51.900Z,5.10
2022-10-11T10:35:46.332Z,6.00
2022-10-11T10:38:51.199Z,8.25
2022-10-11T10:41:19.442Z,7.03
2022-10-11T10:43:53.943Z,2.97
2022-10-11T10:47:15.959Z,5.97
2022-10-11T10:49:57.736Z,7.67
2022-10-11T10:53:24.981Z,4.90
2022-10-11T10:56:34.833Z,5.57
2022-10-11T10:59:26.624Z,7.25
2022-10-11T11:02:21.450Z,3.40
2022-10-11T11:05:22.348Z,4.90
2022-10-11T11:07:54.733Z,9.30
2022-10-11T11:10:33.321Z,6.72
2022-10-11T11:13:14.826Z,7.88
2022-10-11T11:15:55.968Z,4.35
2022-10-11T11:18:31.811Z,4.83
2022-10-11T11:21:40.615Z,5.45
2022-10-11T11:24:22.693Z,6.90
2022-10-11T11:27:01.786Z,5.13
2022-10-11T11:29:56.103Z,5.80
2022-10-11T11:32:22.928Z,7.37
2022-10-11T11:35:01.345Z,3.72
2022-10-11T11:37:41.571Z,6.07
2022-10-11T11:40:18.534Z,4.68
2022-10-11T11:43:02.000Z,5.25
2022-10-11T11:45:40.374Z,5.13
2022-10-11T11:48:14.907Z,5.28
2022-10-11T11:50:45.843Z,7.05
2022-10-11T11:53:35.660Z,4.25
2022-10-11T11:56:10.236Z,3.22
2022-10-11T11:58:59.762Z,7.27
2022-10-11T12:01:31.528Z,5.03
2022-10-11T12:04:21.667Z,6.75
2022-10-11T12:07:19.708Z,5.57
2022-10-11T12:09:52.732Z,5.38
2022-10-11T12:12:37.726Z,9.57
2022-10-11T12:15:22.644Z,4.82
2022-10-11T12:17:56.021Z,2.30
2022-10-11T12:20:27.266Z,5.15
2022-10-11T12:23:00.658Z,6.50
2022-10-11T12:25:27.513Z,3.60
2022-10-11T12:27:59.671Z,4.03
2022-10-11T12:30:44.614Z,5.88
2022-10-11T12:33:32.722Z,3.78
2022-10-11T12:36:22.972Z,5.97
2022-10-11T12:39:18.330Z,8.00
2022-10-11T12:41:51.025Z,8.25
2022-10-11T12:44:30.357Z,5.57
2022-10-11T12:47:01.994Z,5.20
2022-10-11T12:49:32.504Z,6.10
2022-10-11T12:52:21.790Z,5.93
2022-10-11T12:55:03.655Z,3.20
2022-10-11T12:57:46.388Z,5.25
2022-10-11T13:00:30.057Z,5.88
2022-10-11T13:02:59.541Z,8.90
2022-10-11T13:05:44.937Z,7.23
2022-10-11T13:08:20.970Z,7.35
2022-10-11T13:10:48.545Z,5.97
2022-10-11T13:13:47.307Z,4.45
2022-10-11T13:16:27.631Z,8.02
2022-10-11T13:18:58.843Z,8.47
2022-10-11T13:21:37.063Z,6.10
2022-10-11T13:24:15.896Z,21.15
2022-10-11T13:26:48.421Z,8.43
2022-10-11T13:29:33.358Z,24.92
2022-10-11T13:32:08.238Z,6.80
2022-10-11T13:34:39.422Z,12.18
2022-10-11T13:37:07.832Z,16.25
2022-10-11T13:39:37.782Z,7.15
2022-10-11T13:42:12.398Z,4.70
2022-10-11T13:44:41.530Z,5.53
2022-10-11T13:47:14.375Z,6.43
2022-10-11T13:49:46.381Z,7.72
2022-10-11T13:52:22.146Z,7.45
2022-10-11T13:55:04.184Z,4.28
2022-10-11T13:57:46.563Z,5.30
2022-10-11T14:00:17.197Z,6.70
2022-10-11T14:03:05.694Z,4.90
2022-10-11T14:05:52.583Z,6.60
2022-10-11T14:08:26.494Z,6.15
2022-10-11T14:10:57.227Z,7.17
2022-10-11T14:13:29.685Z,7.60
2022-10-11T14:16:10.162Z,6.28
2022-10-11T14:18:36.916Z,6.97
2022-10-11T14:21:27.261Z,5.35
2022-10-11T14:24:06.718Z,5.17
2022-10-11T14:26:39.641Z,9.05
2022-10-11T14:29:28.437Z,11.30
2022-10-11T14:32:01.693Z,6.53
2022-10-11T14:34:29.088Z,5.97
2022-10-11T14:36:56.042Z,7.20
2022-10-11T14:39:25.471Z,6.97
2022-10-11T14:41:53.042Z,6.07
2022-10-11T14:44:21.831Z,5.47
2022-10-11T14:46:50.573Z,6.93
2022-10-11T14:49:27.202Z,7.33
2022-10-11T14:51:56.218Z,4.85
2022-10-11T14:54:25.189Z,4.45
2022-10-11T14:56:54.067Z,5.18
2022-10-11T14:59:24.183Z,3.25
2022-10-11T15:01:53.593Z,4.63
2022-10-11T15:04:22.052Z,3.33
2022-10-11T15:06:49.412Z,6.45
2022-10-11T15:09:17.465Z,6.05
2022-10-11T15:11:44.300Z,10.18
2022-10-11T15:14:11.118Z,5.13
2022-10-11T15:16:40.123Z,3.28
2022-10-11T15:19:14.219Z,4.10
2022-10-11T15:21:41.099Z,7.65
2022-10-11T15:24:08.007Z,5.75
2022-10-11T15:26:34.885Z,5.17
2022-10-11T15:29:02.012Z,8.43
2022-10-11T15:31:29.006Z,6.60
2022-10-11T15:33:59.687Z,8.23
2022-10-11T15:36:26.911Z,10.38
2022-10-11T15:38:53.980Z,8.17
2022-10-11T15:41:21.337Z,7.22
2022-10-11T15:43:49.163Z,6.78
2022-10-11T15:46:22.305Z,8.95
2022-10-11T15:48:51.000Z,5.82
2022-10-11T15:51:18.140Z,4.73
2022-10-11T15:53:45.080Z,7.03
2022-10-11T15:56:18.939Z,5.97
2022-10-11T15:58:46.356Z,7.95
2022-10-11T16:01:19.022Z,4.78
2022-10-11T16:03:48.564Z,7.10
2022-10-11T16:06:16.465Z,6.00
2022-10-11T16:08:43.407Z,8.40
2022-10-11T16:11:11.424Z,6.82
2022-10-11T16:13:39.320Z,7.32
2022-10-11T16:16:08.119Z,4.03
2022-10-11T16:18:36.234Z,3.60
2022-10-11T16:21:10.313Z,6.68
2022-10-11T16:23:38.147Z,6.18
2022-10-11T16:26:08.338Z,6.93
2022-10-11T16:28:36.113Z,4.00
2022-10-11T16:31:10.982Z,9.43
2022-10-11T16:33:46.136Z,7.57
2022-10-11T16:36:40.671Z,9.20
2022-10-11T16:39:12.377Z,6.28
2022-10-11T16:41:39.543Z,5.07
2022-10-11T16:44:07.217Z,7.20
2022-10-11T16:46:34.814Z,8.77
2022-10-11T16:49:01.881Z,6.65
2022-10-11T16:51:28.829Z,7.15
2022-10-11T16:53:55.708Z,6.57
2022-10-11T16:56:25.153Z,7.68
2022-10-11T16:58:54.348Z,7.32
2022-10-11T17:01:21.771Z,4.30
2022-10-11T17:03:49.838Z,6.57
2022-10-11T17:06:17.028Z,6.33
2022-10-11T17:08:43.937Z,6.65
2022-10-11T17:11:11.220Z,5.53
2022-10-11T17:13:38.029Z,7.07
2022-10-11T17:16:05.438Z,5.90
2022-10-11T17:18:32.628Z,5.53
2022-10-11T17:21:06.948Z,5.35
2022-10-11T17:23:35.581Z,4.50
2022-10-11T17:26:10.103Z,4.10
2022-10-11T17:28:39.028Z,9.77
2022-10-11T17:31:07.145Z,7.20
2022-10-11T17:33:34.694Z,6.75
2022-10-11T17:36:01.936Z,5.78
2022-10-11T17:38:29.152Z,5.20
2022-10-11T17:41:08.529Z,6.30
2022-10-11T17:43:35.848Z,4.10
2022-10-11T17:46:08.861Z,4.97
2022-10-11T17:51:13.420Z,6.38
2022-10-11T17:53:41.036Z,5.80
2022-10-11T17:56:22.744Z,6.20
2022-10-11T17:58:54.396Z,5.63
2022-10-11T18:01:23.742Z,6.88
2022-10-11T18:03:53.872Z,7.60
2022-10-11T18:06:21.224Z,5.30
2022-10-11T18:08:48.255Z,4.87
2022-10-11T18:11:17.314Z,9.43
2022-10-11T18:13:47.208Z,5.95
2022-10-11T18:16:16.469Z,6.70
2022-10-11T18:18:43.864Z,3.20
2022-10-11T18:21:11.557Z,7.20
2022-10-11T18:23:38.643Z,6.53
2022-10-11T18:26:13.699Z,6.22
2022-10-11T18:28:41.922Z,11.82
2022-10-11T18:31:13.821Z,4.10
2022-10-11T18:33:42.254Z,6.57
2022-10-11T18:36:10.590Z,9.70
2022-10-11T18:38:38.303Z,8.43
2022-10-11T18:41:10.101Z,7.20
2022-10-11T18:43:37.537Z,6.05
2022-10-11T18:46:12.808Z,8.47
2022-10-11T18:48:42.146Z,7.53
2022-10-11T18:51:11.961Z,7.30
2022-10-11T18:53:38.878Z,6.03
2022-10-11T18:56:08.696Z,8.48
2022-10-11T18:58:37.292Z,8.43
2022-10-11T19:01:09.915Z,6.68
2022-10-11T19:03:37.211Z,8.10
2022-10-11T19:06:11.389Z,5.78
2022-10-11T19:08:38.390Z,7.20
2022-10-11T19:11:07.247Z,5.50
2022-10-11T19:13:35.404Z,9.55
2022-10-11T19:16:10.891Z,9.63
2022-10-11T19:18:43.183Z,9.02
2022-10-11T19:21:13.298Z,5.95
2022-10-11T19:23:45.407Z,6.40
2022-10-11T19:26:27.605Z,9.02
2022-10-11T19:29:15.570Z,7.75
2022-10-11T19:31:45.190Z,9.48
2022-10-11T19:34:12.270Z,9.95
2022-10-11T19:36:42.002Z,8.70
2022-10-11T19:39:12.244Z,7.25
2022-10-11T19:41:39.178Z,8.65
2022-10-11T19:44:06.089Z,7.88
2022-10-11T19:46:50.362Z,6.68
2022-10-11T19:49:21.673Z,9.23
2022-10-11T19:51:48.585Z,5.68
2022-10-11T19:54:16.251Z,9.15
2022-10-11T19:56:43.480Z,6.97
2022-10-11T19:59:11.837Z,9.15
2022-10-11T20:01:40.000Z,9.60
2022-10-11T20:04:12.912Z,8.38
2022-10-11T20:06:50.381Z,9.73
2022-10-11T20:09:29.095Z,7.25
2022-10-11T20:11:56.825Z,4.18
2022-10-11T20:14:23.826Z,6.37
2022-10-11T20:16:50.942Z,6.65
2022-10-11T20:19:18.095Z,8.43
2022-10-11T20:21:45.434Z,10.90
2022-10-11T20:24:12.948Z,10.35
2022-10-11T20:26:40.184Z,9.90
2022-10-11T20:29:07.432Z,8.48
2022-10-11T20:31:38.331Z,10.23
2022-10-11T20:34:07.547Z,8.45
2022-10-11T20:36:36.111Z,8.02
2022-10-11T20:39:05.138Z,8.33
2022-10-11T20:41:40.016Z,8.50
2022-10-11T20:44:09.039Z,9.18
2022-10-11T20:46:38.656Z,7.68
2022-10-11T20:49:08.005Z,10.00
2022-10-11T20:51:36.422Z,12.07
2022-10-11T20:54:04.873Z,6.95
2022-10-11T20:56:32.259Z,9.18
2022-10-11T20:58:59.440Z,8.13
2022-10-11T21:01:29.477Z,8.70
2022-10-11T21:04:00.967Z,7.33
2022-10-11T21:06:29.462Z,8.98
2022-10-11T21:08:56.825Z,7.65
2022-10-11T21:11:28.061Z,7.15
2022-10-11T21:13:59.752Z,10.82
2022-10-11T21:16:27.466Z,7.67
2022-10-11T21:18:56.157Z,7.82
2022-10-11T21:21:24.140Z,9.25
2022-10-11T21:23:55.403Z,8.20
2022-10-11T21:26:22.384Z,7.72
2022-10-11T21:28:49.240Z,7.50
2022-10-11T21:31:18.597Z,8.73
2022-10-11T21:33:45.486Z,6.65
2022-10-11T21:36:20.678Z,8.18
2022-10-11T21:38:48.230Z,8.52
2022-10-11T21:41:18.264Z,9.63
2022-10-11T21:43:45.777Z,9.65
2022-10-11T21:46:19.062Z,8.07
2022-10-11T21:48:46.852Z,10.32
2022-10-11T21:51:27.900Z,11.60
2022-10-11T21:53:56.332Z,10.20
2022-10-11T21:56:23.860Z,9.75
2022-10-11T21:58:50.898Z,9.63
2022-10-11T22:01:18.880Z,10.13
2022-10-11T22:03:46.954Z,11.43
2022-10-11T22:06:14.663Z,11.20
2022-10-11T22:08:41.768Z,10.75
2022-10-11T22:11:09.078Z,13.15
2022-10-11T22:13:36.407Z,8.85
2022-10-11T22:16:08.281Z,10.23
2022-10-11T22:18:35.789Z,6.77
2022-10-11T22:21:17.689Z,12.00
2022-10-11T22:23:48.100Z,9.02
2022-10-11T22:26:20.574Z,7.57
2022-10-11T22:28:47.743Z,10.73
2022-10-11T22:31:17.524Z,8.93
2022-10-11T22:36:13.492Z,8.50
2022-10-11T22:38:41.664Z,11.70
2022-10-11T22:41:08.824Z,10.93
2022-10-11T22:43:35.979Z,11.40
2022-10-11T22:46:02.976Z,7.63
2022-10-11T22:48:30.144Z,8.85
2022-10-11T22:50:57.057Z,8.32
2022-10-11T22:53:23.829Z,11.80
2022-10-11T22:55:51.106Z,10.07
2022-10-11T22:58:17.918Z,6.93
2022-10-11T23:00:44.657Z,6.93
2022-10-11T23:03:15.750Z,6.82
2022-10-11T23:05:43.016Z,9.65
2022-10-11T23:08:10.302Z,6.30
2022-10-11T23:10:40.402Z,6.63
2022-10-11T23:13:07.631Z,6.10
2022-10-11T23:15:34.781Z,6.57
2022-10-11T23:18:01.611Z,8.55
2022-10-11T23:20:28.485Z,6.53
2022-10-11T23:22:55.285Z,6.53
2022-10-11T23:25:22.098Z,6.22
2022-10-11T23:27:50.239Z,6.18
2022-10-11T23:30:17.042Z,6.05
2022-10-11T23:32:43.850Z,7.77
2022-10-11T23:35:10.580Z,5.20
2022-10-11T23:37:37.680Z,8.90
2022-10-11T23:40:05.219Z,4.30
2022-10-11T23:42:31.911Z,5.75
2022-10-11T23:44:58.682Z,5.50
2022-10-11T23:47:25.454Z,7.53
2022-10-11T23:49:52.879Z,6.90
2022-10-11T23:52:19.642Z,5.85
2022-10-11T23:54:46.452Z,5.43
2022-10-11T23:57:13.383Z,3.67
2022-10-11T23:59:40.228Z,6.13
